createdAt,value
2018-09-23T09:23:05.087Z,13.24
2018-09-23T09:24:05.081Z,13.20
2018-09-23T09:25:05.043Z,13.35
2018-09-23T09:26:05.011Z,13.32
2018-09-23T09:27:05.023Z,13.29
2018-09-23T09:28:04.987Z,13.30
2018-09-23T09:29:04.954Z,13.36
2018-09-23T09:30:04.959Z,13.38
2018-09-23T09:31:04.914Z,13.43
2018-09-23T09:32:04.919Z,13.45
2018-09-23T09:33:04.886Z,13.49
2018-09-23T09:34:04.858Z,13.55
2018-09-23T09:35:04.856Z,13.58
2018-09-23T09:36:04.846Z,13.63
2018-09-23T09:37:04.790Z,13.61
2018-09-23T09:38:04.788Z,13.72
2018-09-23T09:39:04.749Z,13.75
2018-09-23T09:40:04.752Z,13.82
2018-09-23T09:41:04.707Z,13.80
2018-09-23T09:42:04.699Z,13.73
2018-09-23T09:43:04.677Z,13.82
2018-09-23T09:44:04.676Z,13.75
2018-09-23T09:45:04.638Z,13.79
2018-09-23T09:46:04.625Z,13.83
2018-09-23T09:47:04.606Z,13.82
2018-09-23T09:48:04.564Z,13.82
2018-09-23T09:49:04.558Z,13.93
2018-09-23T09:50:04.544Z,13.91
2018-09-23T09:51:04.507Z,13.85
2018-09-23T09:52:04.521Z,13.86
2018-09-23T09:53:04.487Z,13.85
2018-09-23T09:54:04.454Z,13.91
2018-09-23T09:55:04.427Z,13.88
2018-09-23T09:56:04.418Z,13.91
2018-09-23T09:57:04.417Z,13.82
2018-09-23T09:58:04.403Z,13.85
2018-09-23T09:59:04.360Z,13.88
2018-09-23T10:00:04.370Z,13.82
2018-09-23T10:01:04.329Z,13.76
2018-09-23T10:02:04.328Z,13.85
2018-09-23T10:03:04.276Z,13.82
2018-09-23T10:04:04.305Z,13.80
2018-09-23T10:05:04.262Z,13.73
2018-09-23T10:06:04.230Z,13.68
2018-09-23T10:07:04.188Z,13.79
2018-09-23T10:08:04.170Z,13.85
2018-09-23T10:09:04.175Z,13.85
2018-09-23T10:10:04.134Z,13.86
2018-09-23T10:11:04.124Z,13.80
2018-09-23T10:12:04.124Z,13.83
2018-09-23T10:13:04.099Z,13.78
2018-09-23T10:14:04.059Z,13.72
2018-09-23T10:15:04.038Z,13.67
2018-09-23T10:16:04.033Z,13.63
2018-09-23T10:17:03.999Z,13.65
2018-09-23T10:18:03.975Z,13.61
2018-09-23T10:19:03.966Z,13.61
2018-09-23T10:20:03.932Z,13.51
2018-09-23T10:21:03.936Z,13.46
2018-09-23T10:22:03.891Z,13.49
2018-09-23T10:23:03.942Z,13.58
2018-09-23T10:24:03.850Z,13.53
2018-09-23T10:25:03.857Z,13.45
2018-09-23T10:26:03.814Z,13.45
2018-09-23T10:27:03.810Z,13.38
2018-09-23T10:28:03.790Z,13.29
2018-09-23T10:29:03.760Z,13.24
2018-09-23T10:30:03.737Z,13.29
2018-09-23T10:31:03.770Z,13.35
2018-09-23T10:32:03.713Z,13.24
2018-09-23T10:33:03.683Z,13.36
2018-09-23T10:34:03.668Z,13.24
2018-09-23T10:35:03.657Z,13.40
2018-09-23T10:36:03.671Z,13.27
2018-09-23T10:37:03.595Z,13.27
2018-09-23T10:38:03.570Z,13.20
2018-09-23T10:39:03.565Z,13.14
2018-09-23T10:40:03.556Z,13.11
2018-09-23T10:41:03.510Z,13.11
2018-09-23T10:42:03.539Z,13.05
2018-09-23T10:43:03.484Z,13.01
2018-09-23T10:44:03.453Z,13.04
2018-09-23T10:45:03.426Z,12.99
2018-09-23T10:46:03.431Z,12.91
2018-09-23T10:47:03.417Z,12.87
2018-09-23T10:48:03.371Z,12.93
2018-09-23T10:49:03.357Z,12.86
2018-09-23T10:50:03.325Z,12.90
2018-09-23T10:51:03.300Z,12.96
2018-09-23T10:52:03.281Z,12.98
2018-09-23T10:53:03.268Z,12.86
2018-09-23T10:54:03.245Z,12.79
2018-09-23T10:55:03.261Z,12.79
2018-09-23T10:56:03.208Z,12.83
2018-09-23T10:57:03.196Z,12.84
2018-09-23T10:58:03.159Z,12.79
2018-09-23T10:59:03.158Z,12.77
2018-09-23T11:00:03.131Z,12.81
2018-09-23T11:01:03.103Z,12.81
2018-09-23T11:02:03.107Z,12.72
2018-09-23T11:03:03.054Z,12.83
2018-09-23T11:04:03.203Z,12.83
2018-09-23T11:05:03.043Z,12.83
2018-09-23T11:06:03.006Z,12.76
2018-09-23T11:07:03.012Z,12.77
2018-09-23T11:08:02.959Z,12.61
2018-09-23T11:09:02.960Z,12.69
2018-09-23T11:10:02.940Z,12.71
2018-09-23T11:11:02.912Z,12.66
2018-09-23T11:12:02.891Z,12.63
2018-09-23T11:13:02.852Z,12.62
2018-09-23T11:14:02.827Z,12.65
2018-09-23T11:15:02.808Z,12.72
2018-09-23T11:16:02.801Z,12.66
2018-09-23T11:17:02.803Z,12.61
2018-09-23T11:18:02.750Z,12.71
2018-09-23T11:19:02.772Z,12.61
2018-09-23T11:20:02.728Z,12.63
2018-09-23T11:21:02.694Z,12.65
2018-09-23T11:22:02.667Z,12.68
2018-09-23T11:23:02.641Z,12.65
2018-09-23T11:24:02.627Z,12.66
2018-09-23T11:25:02.621Z,12.58
2018-09-23T11:26:02.577Z,12.63
2018-09-23T11:27:02.587Z,12.76
2018-09-23T11:28:02.553Z,12.73
2018-09-23T11:29:02.516Z,12.73
2018-09-23T11:30:02.516Z,12.73
2018-09-23T11:31:02.503Z,12.76
2018-09-23T11:32:02.452Z,12.69
2018-09-23T11:33:02.458Z,12.83
2018-09-23T11:34:02.445Z,12.83
2018-09-23T11:35:02.427Z,12.79
2018-09-23T11:36:02.367Z,12.83
2018-09-23T11:37:02.381Z,12.90
2018-09-23T11:38:02.329Z,12.96
2018-09-23T11:39:02.312Z,12.76
2018-09-23T11:40:02.347Z,12.77
2018-09-23T11:41:02.301Z,12.77
2018-09-23T11:42:02.263Z,12.61
2018-09-23T11:43:02.282Z,12.69
2018-09-23T11:44:02.260Z,12.71
2018-09-23T11:45:02.198Z,12.59
2018-09-23T11:46:02.192Z,12.58
2018-09-23T11:47:02.178Z,12.59
2018-09-23T11:48:02.141Z,12.63
2018-09-23T11:49:02.101Z,12.55
2018-09-23T11:50:02.103Z,12.62
2018-09-23T11:51:02.059Z,12.68
2018-09-23T11:52:02.057Z,12.62
2018-09-23T11:53:02.025Z,12.65
2018-09-23T11:54:02.069Z,12.63
2018-09-23T11:55:02.009Z,12.51
2018-09-23T11:56:01.966Z,12.53
2018-09-23T11:57:01.931Z,12.50
2018-09-23T11:58:01.915Z,12.38
2018-09-23T11:59:01.957Z,12.41
2018-09-23T12:00:01.886Z,12.40
2018-09-23T12:01:01.855Z,12.43
2018-09-23T12:02:01.867Z,12.41
2018-09-23T12:03:01.840Z,12.40
2018-09-23T12:04:01.814Z,12.46
2018-09-23T12:05:01.820Z,12.40
2018-09-23T12:06:01.783Z,12.32
2018-09-23T12:07:01.761Z,12.25
2018-09-23T12:09:24.885Z,12.26
2018-09-23T12:10:24.832Z,12.30
2018-09-23T12:11:24.744Z,12.30
2018-09-23T12:12:24.759Z,12.22
2018-09-23T12:13:24.708Z,12.25
2018-09-23T12:14:24.728Z,12.30
2018-09-23T12:15:24.661Z,12.25
2018-09-23T12:16:24.635Z,12.22
2018-09-23T12:18:47.796Z,12.15
2018-09-23T12:21:10.805Z,12.28
2018-09-23T12:22:10.701Z,12.22
2018-09-23T12:23:10.721Z,12.18
2018-09-23T12:25:33.913Z,12.08
2018-09-23T12:27:56.952Z,12.03
2018-09-23T12:30:20.032Z,11.96
2018-09-23T12:32:43.227Z,11.99
2018-09-23T12:35:05.986Z,11.93
2018-09-23T12:37:29.128Z,11.89
2018-09-23T12:38:28.855Z,11.87
2018-09-23T12:40:51.912Z,11.80
2018-09-23T12:43:15.250Z,11.71
2018-09-23T12:45:38.487Z,11.59
2018-09-23T12:48:01.025Z,11.62
2018-09-23T12:50:24.549Z,11.67
2018-09-23T12:51:24.091Z,11.62
2018-09-23T12:53:47.087Z,11.74
2018-09-23T12:56:10.055Z,11.71
2018-09-23T12:58:43.125Z,11.61
2018-09-23T13:01:06.190Z,11.58
2018-09-23T13:03:20.139Z,11.56
2018-09-23T13:04:28.226Z,11.54
2018-09-23T13:06:13.913Z,11.55
2018-09-23T13:08:36.825Z,11.58
2018-09-23T13:11:00.638Z,11.56
2018-09-23T13:12:09.631Z,11.56
2018-09-23T13:13:55.308Z,11.69
2018-09-23T13:14:55.386Z,11.61
2018-09-23T13:15:55.049Z,11.54
2018-09-23T13:16:55.296Z,11.58
2018-09-23T13:19:17.754Z,11.55
2018-09-23T13:20:17.283Z,11.54
2018-09-23T13:21:17.283Z,11.59
2018-09-23T13:23:40.227Z,11.46
2018-09-23T13:26:03.508Z,11.37
2018-09-23T13:28:26.483Z,11.37
2018-09-23T13:29:26.506Z,11.38
2018-09-23T13:31:49.395Z,11.36
2018-09-23T13:32:58.717Z,11.37
